»·PEaware :: N3861Q KBFL-KPOC

N3861Q :: KBFL-KPOC

FLIGHT INFORMATION

Flight Status: Arrived
Operator: Privately registered:
United States
More flights under this callsign
Pilot: Rod M. (882)
Aircraft: PIPER PA-31/31P NAVAJO CHIEFTAIN
(PA31)
More flights by this aircraft type
Origin: KBFL Meadows
United States
Destination: KPOC Brackett
United States
More flights between these airports :: More routes between these airports
Route: +EHF V197 PMD ZIGGY6
File this flight plan on PilotEdge
Remarks:
Altitude:
(Current/Filed)
11,000ft
Speed:
(Current/Filed)
180kts
Departed: 05-Oct-17 03:47 PM
Arrived: 05-Oct-17 04:44 PM
Distance/Time
Traveled:
102nm/0:57
Distance/Time
To Go:
Arrived

Flight Plot

Page will automatically refresh every two minutes.

Flight plan parsing failed; only flown route is shown


Map Options




Map Legend


Flown Route
Filed Route
Departure Airport
Arrival Airport
Navaid (VOR, NDB)
Fix

Horizontal Profiles

Position Reports

Time Latitude Longitude Heading Altitude Ground
Speed
05-Oct-17 15:41 35.435706 -119.052037 179 510ft 0kts
05-Oct-17 15:42 35.435706 -119.052037 180 510ft 0kts
05-Oct-17 15:43 35.435706 -119.052037 180 510ft 0kts
05-Oct-17 15:44 35.435706 -119.052037 180 510ft 0kts
05-Oct-17 15:45 35.435559 -119.052264 259 510ft 9kts
05-Oct-17 15:46 35.434316 -119.054497 153 510ft 12kts
05-Oct-17 15:47 35.430535 -119.049965 135 510ft 19kts
05-Oct-17 15:48 35.426897 -119.045573 135 510ft 17kts
05-Oct-17 15:49 35.425622 -119.044776 246 510ft 0kts
05-Oct-17 15:50 35.425472 -119.045316 253 510ft 11kts
05-Oct-17 15:51 35.439308 -119.062748 314 876ft 130kts
05-Oct-17 15:52 35.463634 -119.095697 313 2174ft 132kts
05-Oct-17 15:53 35.488830 -119.127639 315 2976ft 135kts
05-Oct-17 15:54 35.510165 -119.164134 262 3142ft 138kts
05-Oct-17 15:55 35.479697 -119.158015 127 4493ft 144kts
05-Oct-17 15:56 35.454292 -119.118503 129 5804ft 152kts
05-Oct-17 15:57 35.427253 -119.078873 130 7154ft 155kts
05-Oct-17 15:58 35.397902 -119.038494 133 8380ft 163kts
05-Oct-17 15:59 35.368259 -118.995908 134 9616ft 166kts
05-Oct-17 16:00 35.340185 -118.950512 126 10758ft 169kts
05-Oct-17 16:01 35.313170 -118.898210 121 11011ft 195kts
05-Oct-17 16:02 35.276119 -118.851103 136 11017ft 196kts
05-Oct-17 16:03 35.236059 -118.805183 140 10982ft 198kts
05-Oct-17 16:04 35.195885 -118.759364 137 10970ft 198kts
05-Oct-17 16:05 35.156850 -118.712544 141 10938ft 199kts
05-Oct-17 16:06 35.117166 -118.667163 137 11084ft 193kts
05-Oct-17 16:07 35.077296 -118.622991 138 11098ft 195kts
05-Oct-17 16:08 35.037112 -118.578451 141 11133ft 196kts
05-Oct-17 16:09 34.997469 -118.532440 138 11151ft 196kts
05-Oct-17 16:10 34.958302 -118.484896 135 11116ft 200kts
05-Oct-17 16:11 34.919834 -118.435321 135 11063ft 202kts
05-Oct-17 16:12 34.879528 -118.387425 142 11023ft 202kts
05-Oct-17 16:13 34.839757 -118.339964 135 10990ft 204kts
05-Oct-17 16:14 34.803429 -118.286989 136 10974ft 203kts
05-Oct-17 16:15 34.765217 -118.236962 135 11015ft 201kts
05-Oct-17 16:16 34.727563 -118.186597 136 11031ft 201kts
05-Oct-17 16:17 34.689234 -118.136830 135 11056ft 201kts
05-Oct-17 16:18 34.650212 -118.087647 138 11084ft 201kts
05-Oct-17 16:19 34.616003 -118.033856 121 11093ft 203kts
05-Oct-17 16:20 34.589030 -117.972671 119 11050ft 206kts
05-Oct-17 16:21 34.561915 -117.911199 120 11035ft 206kts
05-Oct-17 16:22 34.533804 -117.850690 120 11033ft 206kts
05-Oct-17 16:23 34.507328 -117.789195 118 11034ft 206kts
05-Oct-17 16:24 34.480457 -117.727847 119 11048ft 205kts
05-Oct-17 16:25 34.452067 -117.668068 123 11046ft 205kts
05-Oct-17 16:26 34.423561 -117.608183 118 11051ft 204kts
05-Oct-17 16:27 34.397374 -117.547169 122 11053ft 203kts
05-Oct-17 16:28 34.369145 -117.487788 118 10977ft 206kts
05-Oct-17 16:29 34.340430 -117.428058 121 10941ft 205kts
05-Oct-17 16:30 34.308754 -117.370252 128 10115ft 209kts
05-Oct-17 16:31 34.277813 -117.313355 119 9075ft 205kts
05-Oct-17 16:32 34.250397 -117.255325 130 8092ft 199kts
05-Oct-17 16:33 34.217737 -117.206578 167 7909ft 176kts
05-Oct-17 16:34 34.181725 -117.231434 237 7877ft 163kts
05-Oct-17 16:35 34.159741 -117.277270 245 6936ft 156kts
05-Oct-17 16:36 34.140009 -117.322758 241 5971ft 152kts
05-Oct-17 16:37 34.119440 -117.365805 242 5111ft 144kts
05-Oct-17 16:38 34.101719 -117.409004 250 4217ft 143kts
05-Oct-17 16:39 34.087226 -117.452030 248 3944ft 126kts
05-Oct-17 16:40 34.077088 -117.491312 270 3958ft 121kts
05-Oct-17 16:41 34.077902 -117.532716 277 3990ft 126kts
05-Oct-17 16:42 34.080977 -117.575556 272 3908ft 129kts
05-Oct-17 16:43 34.083293 -117.617838 277 3882ft 125kts
05-Oct-17 16:44 34.084532 -117.659694 276 3514ft 127kts
05-Oct-17 16:45 34.087042 -117.702385 271 2538ft 126kts
05-Oct-17 16:46 34.089425 -117.744165 276 1705ft 126kts
05-Oct-17 16:47 34.091253 -117.780576 272 1015ft 56kts
05-Oct-17 16:48 34.090884 -117.784415 176 1015ft 0kts
05-Oct-17 16:49 34.090690 -117.783140 94 1015ft 10kts
05-Oct-17 16:50 34.089819 -117.780504 185 1015ft 13kts
05-Oct-17 16:51 34.089544 -117.780923 272 1015ft 0kts

Navigation Log

Ident Type
Flight plan parsing failed, navigation log unavailable